createdAt,value
2023-06-19T03:01:44.028Z,69.58
2023-06-19T03:02:50.000Z,69.27
2023-06-19T03:03:53.419Z,68.90
2023-06-19T03:04:55.246Z,69.31
2023-06-19T03:06:00.925Z,68.66
2023-06-19T03:07:04.047Z,69.22
2023-06-19T03:08:08.075Z,69.04
2023-06-19T03:09:13.430Z,69.37
2023-06-19T03:10:16.245Z,69.38
2023-06-19T03:11:18.039Z,69.45
2023-06-19T03:12:20.772Z,68.64
2023-06-19T03:13:22.590Z,69.63
2023-06-19T03:14:25.378Z,69.37
2023-06-19T03:15:27.266Z,68.69
2023-06-19T03:16:30.530Z,69.54
2023-06-19T03:17:33.775Z,68.75
2023-06-19T03:18:36.630Z,69.35
2023-06-19T03:19:38.464Z,69.05
2023-06-19T03:20:41.224Z,69.48
2023-06-19T03:21:43.268Z,69.42
2023-06-19T03:22:46.595Z,69.42
2023-06-19T03:23:51.286Z,70.06
2023-06-19T03:24:56.057Z,69.44
2023-06-19T03:25:58.883Z,69.82
2023-06-19T03:27:01.948Z,69.96
2023-06-19T03:28:04.313Z,69.58
2023-06-19T03:29:07.213Z,70.06
2023-06-19T03:30:23.989Z,70.00
2023-06-19T03:31:28.389Z,70.38
2023-06-19T03:32:32.386Z,70.24
2023-06-19T03:33:36.965Z,69.73
2023-06-19T03:34:38.800Z,70.62
2023-06-19T03:35:44.965Z,70.31
2023-06-19T03:36:56.714Z,70.32
2023-06-19T03:37:58.456Z,70.20
2023-06-19T03:39:01.331Z,70.30
2023-06-19T03:40:06.850Z,70.58
2023-06-19T03:41:14.015Z,70.21
2023-06-19T03:42:15.924Z,70.67
2023-06-19T03:43:21.278Z,71.66
2023-06-19T03:44:23.178Z,71.56
2023-06-19T03:45:25.931Z,71.38
2023-06-19T03:46:27.861Z,71.26
2023-06-19T03:47:30.615Z,72.25
2023-06-19T03:48:32.547Z,72.11
2023-06-19T03:49:36.700Z,71.99
2023-06-19T03:50:38.542Z,71.95
2023-06-19T03:51:43.866Z,72.14
2023-06-19T03:52:45.699Z,73.37
2023-06-19T03:53:48.455Z,74.02
2023-06-19T03:54:53.159Z,74.14
2023-06-19T03:55:56.761Z,74.34
2023-06-19T03:56:58.725Z,73.98
2023-06-19T03:58:01.491Z,74.58
2023-06-19T03:59:03.477Z,74.64
2023-06-19T04:00:08.831Z,74.36
2023-06-19T04:01:15.197Z,75.43
2023-06-19T04:02:17.026Z,75.46
2023-06-19T04:03:19.902Z,75.57
2023-06-19T04:04:21.794Z,76.25
2023-06-19T04:05:27.219Z,76.39
2023-06-19T04:06:29.102Z,76.69
2023-06-19T04:07:32.758Z,77.36
2023-06-19T04:08:34.925Z,77.21
2023-06-19T04:09:37.672Z,77.65
2023-06-19T04:10:39.435Z,78.18
2023-06-19T04:11:42.122Z,78.57
2023-06-19T04:12:46.228Z,78.22
2023-06-19T04:13:48.927Z,78.03
2023-06-19T04:14:50.737Z,78.80
2023-06-19T04:15:53.453Z,78.12
2023-06-19T04:16:55.247Z,78.47
2023-06-19T04:17:58.034Z,79.42
2023-06-19T04:19:00.030Z,79.85
2023-06-19T04:20:04.419Z,79.32
2023-06-19T04:21:08.322Z,79.76
2023-06-19T04:22:11.393Z,79.62
2023-06-19T04:23:13.933Z,81.19
2023-06-19T04:24:16.790Z,81.23
2023-06-19T04:25:19.269Z,80.18
2023-06-19T04:26:22.740Z,81.02
2023-06-19T04:27:24.482Z,80.54
2023-06-19T04:28:29.996Z,80.98
2023-06-19T04:29:32.879Z,81.61
2023-06-19T04:30:35.602Z,81.59
2023-06-19T04:31:42.840Z,81.80
2023-06-19T04:32:45.875Z,82.21
2023-06-19T04:33:47.859Z,81.74
2023-06-19T04:34:50.733Z,81.83
2023-06-19T04:35:52.505Z,82.39
2023-06-19T04:36:59.318Z,82.75
2023-06-19T04:38:02.291Z,82.46
2023-06-19T04:39:05.015Z,82.28
2023-06-19T04:40:09.056Z,82.37
2023-06-19T04:41:11.759Z,82.66
2023-06-19T04:42:14.651Z,82.97
2023-06-19T04:43:17.292Z,83.44
2023-06-19T04:44:19.042Z,82.75
2023-06-19T04:45:21.928Z,82.83
2023-06-19T04:46:23.766Z,82.98
2023-06-19T04:47:33.275Z,83.55
2023-06-19T04:48:40.721Z,83.40
2023-06-19T04:49:42.516Z,84.03
2023-06-19T04:50:45.219Z,83.77
2023-06-19T04:51:47.038Z,84.81
2023-06-19T04:52:52.424Z,84.51
2023-06-19T04:53:54.744Z,84.32
2023-06-19T04:54:57.472Z,84.98
2023-06-19T04:56:00.835Z,84.19
2023-06-19T04:57:05.665Z,84.70
2023-06-19T04:58:07.534Z,84.98
2023-06-19T04:59:10.178Z,84.38
2023-06-19T07:08:17.893Z,80.72
2023-06-19T07:09:22.521Z,79.22
2023-06-19T07:10:26.279Z,79.96
2023-06-19T07:11:28.608Z,80.11
2023-06-19T07:12:31.332Z,79.64
2023-06-19T07:13:33.149Z,78.72
2023-06-19T07:14:35.823Z,79.34
2023-06-19T07:15:37.644Z,78.55
2023-06-19T07:16:40.398Z,78.56
2023-06-19T07:17:42.338Z,79.06
2023-06-19T07:18:45.109Z,79.17
2023-06-19T07:19:47.795Z,78.67
2023-06-19T07:20:49.608Z,78.77
2023-06-19T07:21:52.858Z,76.28
2023-06-19T07:22:55.603Z,75.93
2023-06-19T07:23:59.245Z,75.25
2023-06-19T07:25:02.369Z,75.29
2023-06-19T07:26:05.062Z,75.57
2023-06-19T07:27:08.083Z,75.76
2023-06-19T07:28:10.052Z,76.35
2023-06-19T07:29:12.759Z,75.30
2023-06-19T07:30:16.815Z,75.90
2023-06-19T07:31:19.796Z,74.67
2023-06-19T07:32:22.676Z,75.51
2023-06-19T07:33:24.456Z,74.40
2023-06-19T07:34:27.235Z,74.56
2023-06-19T07:35:29.913Z,74.20
2023-06-19T07:36:31.720Z,73.73
2023-06-19T07:37:35.958Z,74.12
2023-06-19T07:38:38.788Z,73.82
2023-06-19T07:39:41.509Z,73.90
2023-06-19T07:40:45.796Z,73.17
2023-06-19T07:41:47.692Z,73.48
2023-06-19T07:42:50.634Z,74.66
2023-06-19T07:43:52.397Z,74.46
2023-06-19T07:44:55.030Z,73.44
2023-06-19T07:45:56.848Z,72.19
2023-06-19T07:46:59.606Z,71.84
2023-06-19T07:48:01.486Z,71.22
2023-06-19T07:49:04.313Z,71.02
2023-06-19T07:50:06.834Z,71.42
2023-06-19T07:51:09.544Z,71.43
2023-06-19T07:52:11.376Z,71.92
2023-06-19T07:53:14.015Z,72.46
2023-06-19T07:54:15.827Z,73.04
2023-06-19T07:55:18.585Z,72.36
2023-06-19T07:56:21.620Z,72.13
2023-06-19T07:57:25.790Z,72.84
2023-06-19T07:58:27.534Z,72.13
2023-06-19T07:59:30.185Z,72.82
2023-06-19T08:00:32.827Z,72.36
2023-06-19T08:01:34.615Z,72.14
2023-06-19T08:02:37.417Z,72.09
2023-06-19T08:03:39.363Z,71.58
2023-06-19T08:04:42.369Z,72.36
2023-06-19T08:05:45.104Z,71.86
2023-06-19T08:06:46.873Z,70.74
2023-06-19T08:07:49.647Z,69.51
2023-06-19T08:08:52.728Z,70.13
2023-06-19T08:10:07.844Z,69.74
2023-06-19T08:11:15.887Z,69.38
2023-06-19T08:12:19.008Z,69.39
2023-06-19T08:13:21.719Z,70.34
2023-06-19T08:14:23.636Z,69.40
2023-06-19T08:15:26.472Z,69.52
2023-06-19T08:16:29.197Z,69.89
2023-06-19T08:17:31.029Z,70.44
2023-06-19T08:18:33.807Z,70.27
2023-06-19T08:19:35.610Z,69.43
2023-06-19T08:20:38.522Z,69.62
2023-06-19T08:21:41.287Z,69.57
2023-06-19T08:22:43.940Z,68.66
2023-06-19T08:23:45.706Z,68.21
2023-06-19T08:24:48.441Z,68.63
2023-06-19T08:25:52.029Z,68.24
2023-06-19T08:26:55.232Z,67.93
2023-06-19T08:27:58.211Z,67.37
2023-06-19T08:29:01.465Z,67.49
2023-06-19T08:30:04.162Z,67.56
2023-06-19T08:31:06.958Z,67.97
2023-06-19T08:32:10.367Z,67.75
2023-06-19T08:33:13.864Z,67.60
2023-06-19T08:34:15.707Z,67.14
2023-06-19T08:35:18.666Z,66.24
2023-06-19T08:36:20.417Z,66.84
2023-06-19T08:37:23.222Z,66.75
2023-06-19T08:38:25.971Z,67.06
2023-06-19T08:39:28.128Z,67.02
2023-06-19T08:40:31.172Z,67.00
2023-06-19T08:41:33.020Z,67.09
2023-06-19T08:42:35.763Z,65.85
2023-06-19T08:43:42.132Z,66.15
2023-06-19T08:44:44.901Z,66.10
2023-06-19T08:45:59.069Z,66.47
2023-06-19T08:47:01.857Z,65.00
2023-06-19T08:48:05.845Z,64.87
2023-06-19T08:49:15.487Z,65.47
2023-06-19T08:50:17.676Z,65.32
2023-06-19T08:51:20.354Z,64.95
2023-06-19T08:52:22.126Z,64.69
2023-06-19T08:53:24.947Z,64.21
2023-06-19T08:54:26.739Z,62.86
2023-06-19T08:55:29.560Z,62.88
2023-06-19T08:56:35.061Z,63.55
2023-06-19T08:57:39.945Z,62.83
2023-06-19T08:58:43.017Z,62.14
2023-06-19T08:59:50.750Z,61.44
2023-06-19T09:00:53.433Z,61.90
2023-06-19T09:01:56.086Z,62.15
2023-06-19T09:03:13.934Z,61.66
2023-06-19T09:04:16.736Z,61.48
2023-06-19T09:05:20.786Z,62.63
2023-06-19T09:06:22.668Z,61.58
2023-06-19T09:07:25.484Z,62.11
2023-06-19T09:08:27.229Z,61.76
2023-06-19T09:09:33.951Z,62.11
2023-06-19T09:10:35.899Z,61.97
2023-06-19T09:11:44.267Z,61.02
2023-06-19T09:12:58.169Z,60.16
2023-06-19T09:14:02.147Z,60.11
2023-06-19T09:15:12.785Z,58.87
2023-06-19T09:16:15.496Z,57.67
2023-06-19T09:17:20.198Z,57.68
2023-06-19T09:18:25.229Z,56.87
2023-06-19T09:19:27.844Z,58.11
2023-06-19T09:20:30.132Z,56.89
2023-06-19T09:21:32.849Z,57.55
2023-06-19T09:22:34.629Z,56.06
2023-06-19T09:23:37.385Z,55.70
2023-06-19T09:24:42.548Z,55.55
2023-06-19T09:25:48.043Z,57.28
2023-06-19T09:26:52.156Z,56.42
2023-06-19T09:27:55.237Z,55.05
2023-06-19T09:28:57.199Z,56.22
2023-06-19T09:30:02.641Z,56.04
2023-06-19T09:31:06.204Z,56.82
2023-06-19T09:32:17.915Z,57.18
2023-06-19T09:33:22.026Z,58.38
2023-06-19T09:34:24.649Z,58.45
2023-06-19T09:35:27.467Z,57.77
2023-06-19T09:36:34.475Z,57.54
2023-06-19T09:37:40.213Z,57.63
2023-06-19T09:38:42.986Z,58.22
2023-06-19T09:39:49.588Z,57.83
2023-06-19T09:40:54.056Z,56.36
2023-06-19T09:42:00.253Z,56.37
2023-06-19T09:43:05.198Z,56.46
2023-06-19T09:44:13.486Z,56.72
2023-06-19T09:45:21.782Z,55.84
2023-06-19T09:46:32.117Z,55.92
2023-06-19T09:47:37.950Z,55.70
2023-06-19T09:48:44.044Z,56.41
2023-06-19T09:49:50.744Z,55.66
2023-06-19T09:50:56.435Z,55.66
2023-06-19T09:51:59.330Z,57.18
2023-06-19T09:53:02.241Z,55.65
2023-06-19T09:54:07.728Z,55.48
2023-06-19T09:55:13.970Z,54.91
2023-06-19T09:56:23.470Z,54.98
2023-06-19T09:57:25.679Z,55.44
2023-06-19T09:58:29.497Z,55.50
2023-06-19T09:59:32.085Z,57.20
2023-06-19T10:00:38.158Z,55.88
2023-06-19T10:01:41.422Z,56.78
2023-06-19T10:02:46.000Z,57.28
2023-06-19T10:03:48.865Z,57.82
2023-06-19T10:04:53.232Z,56.92
2023-06-19T10:06:00.410Z,56.75
2023-06-19T10:07:02.218Z,57.08
2023-06-19T10:08:05.989Z,56.51
2023-06-19T10:09:11.142Z,56.57
2023-06-19T10:10:23.736Z,56.46
2023-06-19T10:11:28.447Z,56.28
2023-06-19T10:12:37.774Z,56.14
2023-06-19T10:13:42.965Z,55.36
2023-06-19T10:14:48.580Z,55.03
2023-06-19T10:15:52.726Z,56.01
2023-06-19T10:16:54.596Z,55.37
2023-06-19T10:18:03.932Z,55.30
2023-06-19T10:19:14.692Z,55.52
2023-06-19T10:20:23.020Z,55.56
2023-06-19T10:21:25.942Z,56.03
2023-06-19T10:22:31.699Z,57.05
2023-06-19T10:23:38.181Z,57.44
2023-06-19T10:24:52.190Z,56.59
2023-06-19T10:25:58.781Z,56.61
2023-06-19T10:27:02.689Z,55.89
2023-06-19T10:28:08.185Z,56.67
2023-06-19T10:29:17.643Z,56.44
2023-06-19T10:30:20.814Z,56.26
2023-06-19T10:31:25.317Z,56.51
2023-06-19T10:32:27.056Z,56.09
2023-06-19T10:33:31.743Z,56.52
2023-06-19T10:34:35.070Z,55.69
2023-06-19T10:35:41.793Z,55.79
2023-06-19T10:36:43.544Z,55.88
2023-06-19T10:37:46.564Z,56.32
2023-06-19T10:38:49.449Z,56.71
2023-06-19T10:39:51.153Z,56.62
2023-06-19T10:40:54.082Z,57.07
2023-06-19T10:41:55.895Z,56.92
2023-06-19T10:42:58.564Z,56.41
2023-06-19T10:44:01.693Z,56.28
2023-06-19T10:45:07.808Z,56.35
2023-06-19T10:46:10.586Z,54.98
2023-06-19T10:47:17.247Z,55.34
2023-06-19T10:48:22.555Z,56.25
2023-06-19T10:49:24.649Z,54.31
2023-06-19T10:50:27.562Z,54.33
2023-06-19T10:51:29.706Z,54.22
2023-06-19T10:52:33.076Z,53.83
2023-06-19T10:53:34.938Z,53.98
2023-06-19T10:54:37.735Z,52.93
2023-06-19T10:55:40.465Z,54.04
2023-06-19T10:56:44.416Z,53.62
2023-06-19T10:57:51.836Z,53.46
2023-06-19T10:58:59.832Z,54.69
2023-06-19T11:00:01.628Z,54.90
2023-06-19T11:01:04.720Z,54.97
2023-06-19T11:02:07.542Z,55.45
2023-06-19T11:03:11.836Z,54.69
2023-06-19T11:04:15.303Z,53.17
2023-06-19T11:05:18.152Z,53.32
2023-06-19T11:06:20.889Z,52.51
2023-06-19T11:07:24.706Z,52.96
2023-06-19T11:08:28.250Z,52.53
2023-06-19T11:09:32.018Z,53.37
2023-06-19T11:10:34.674Z,53.21
2023-06-19T11:11:38.498Z,53.16
2023-06-19T11:12:41.201Z,52.48
2023-06-19T11:13:43.941Z,51.79
2023-06-19T11:14:46.713Z,51.76
2023-06-19T11:15:50.889Z,48.98
2023-06-19T11:16:52.831Z,48.61
2023-06-19T11:17:55.616Z,48.67
2023-06-19T11:18:58.907Z,51.36
2023-06-19T11:20:01.657Z,51.56
2023-06-19T11:21:03.649Z,50.87
2023-06-19T11:22:09.039Z,50.57
2023-06-19T11:23:11.757Z,49.13
2023-06-19T11:24:15.388Z,48.73
2023-06-19T11:25:18.186Z,48.77
2023-06-19T11:26:20.050Z,50.49
2023-06-19T11:27:28.484Z,50.14
2023-06-19T11:28:31.659Z,50.90
2023-06-19T11:29:37.731Z,49.71
2023-06-19T11:30:39.478Z,50.38
2023-06-19T11:31:42.175Z,49.65
2023-06-19T11:32:49.153Z,49.28
2023-06-19T11:33:59.008Z,49.07
2023-06-19T11:35:08.875Z,48.18
2023-06-19T11:36:11.784Z,48.07
2023-06-19T11:37:14.164Z,47.30
2023-06-19T11:38:20.886Z,47.55
2023-06-19T11:39:23.445Z,46.01
2023-06-19T11:40:26.733Z,47.31
2023-06-19T11:41:29.844Z,45.68
2023-06-19T11:42:34.120Z,46.53
2023-06-19T11:43:37.343Z,46.90
2023-06-19T11:44:54.030Z,47.44
2023-06-19T11:46:03.901Z,47.36
2023-06-19T11:47:08.115Z,46.54
2023-06-19T11:48:10.004Z,45.77
2023-06-19T11:49:18.059Z,46.70
2023-06-19T11:50:23.953Z,47.70
2023-06-19T11:51:28.121Z,47.78
2023-06-19T11:52:30.169Z,46.93
2023-06-19T11:53:33.646Z,46.61
2023-06-19T11:54:36.327Z,47.34
2023-06-19T11:55:39.633Z,47.19
2023-06-19T11:56:43.062Z,46.86
2023-06-19T11:57:45.792Z,46.75
2023-06-19T11:58:47.645Z,48.25
2023-06-19T11:59:50.350Z,47.96
2023-06-19T12:00:54.436Z,48.22
2023-06-19T12:01:59.102Z,48.33
2023-06-19T12:03:01.113Z,47.48
2023-06-19T12:04:05.269Z,48.24
2023-06-19T12:05:09.633Z,48.33
2023-06-19T12:06:12.713Z,48.49
2023-06-19T12:07:16.631Z,48.28
2023-06-19T12:08:18.512Z,48.02
2023-06-19T12:09:21.188Z,48.01
2023-06-19T12:10:23.434Z,47.91
2023-06-19T12:11:26.805Z,48.05
2023-06-19T12:12:29.521Z,48.11
2023-06-19T12:13:31.226Z,47.91
2023-06-19T12:14:33.890Z,47.83
2023-06-19T12:15:38.026Z,47.99
2023-06-19T12:16:40.956Z,47.71
2023-06-19T12:17:43.932Z,47.20
2023-06-19T12:18:46.683Z,47.42
2023-06-19T12:19:49.777Z,47.26
2023-06-19T12:20:53.759Z,47.53
2023-06-19T12:21:56.502Z,47.82
2023-06-19T12:22:59.309Z,48.03
2023-06-19T12:24:01.140Z,48.63
2023-06-19T12:25:03.931Z,48.27
2023-06-19T12:26:08.573Z,49.24
2023-06-19T12:27:11.254Z,48.57
2023-06-19T12:28:17.701Z,48.78
2023-06-19T12:29:21.991Z,47.88
2023-06-19T12:30:26.260Z,47.87
2023-06-19T12:31:28.355Z,47.90
2023-06-19T12:32:31.687Z,47.95
2023-06-19T12:33:34.031Z,49.00
2023-06-19T12:34:38.726Z,47.14
2023-06-19T12:35:42.863Z,46.55
2023-06-19T12:36:46.031Z,46.82
2023-06-19T12:37:48.842Z,46.87
2023-06-19T12:38:50.635Z,47.25
2023-06-19T12:39:53.434Z,47.04
2023-06-19T12:40:55.391Z,47.57
2023-06-19T12:41:58.089Z,46.83
2023-06-19T12:43:00.086Z,48.08
2023-06-19T12:44:02.733Z,46.95
2023-06-19T12:45:05.915Z,47.23
2023-06-19T12:46:07.933Z,47.28
2023-06-19T12:47:10.750Z,46.91
2023-06-19T12:48:12.683Z,46.64
2023-06-19T12:49:15.347Z,47.01
2023-06-19T12:50:17.164Z,48.21
2023-06-19T12:51:20.121Z,48.12
2023-06-19T12:52:23.273Z,47.31
2023-06-19T12:53:30.006Z,47.27
2023-06-19T12:54:32.673Z,48.45
2023-06-19T12:55:40.873Z,49.24
2023-06-19T12:56:54.146Z,49.77
2023-06-19T12:57:56.838Z,49.30
2023-06-19T12:58:58.632Z,49.84
2023-06-19T13:00:01.380Z,50.09
2023-06-19T13:01:03.135Z,51.13
2023-06-19T13:02:06.275Z,49.24
2023-06-19T13:03:08.996Z,48.93
2023-06-19T13:04:12.901Z,50.01
2023-06-19T13:05:15.774Z,48.91
2023-06-19T13:06:17.777Z,48.65
2023-06-19T13:07:20.595Z,48.85
2023-06-19T13:08:23.759Z,49.03
2023-06-19T13:09:26.484Z,48.75
2023-06-19T13:10:28.356Z,49.49
2023-06-19T13:11:31.064Z,48.66
2023-06-19T13:12:33.953Z,48.56
2023-06-19T13:13:36.637Z,49.09
2023-06-19T13:14:38.983Z,49.22
2023-06-19T13:15:41.901Z,49.74
2023-06-19T13:16:46.106Z,48.74
2023-06-19T13:17:49.609Z,49.21
2023-06-19T13:18:51.358Z,49.75
2023-06-19T13:19:53.982Z,49.59
2023-06-19T13:20:56.548Z,48.48
2023-06-19T13:21:59.254Z,48.51
2023-06-19T13:23:00.954Z,48.54
2023-06-19T13:24:05.420Z,49.86
2023-06-19T13:26:10.439Z,49.61
2023-06-19T13:27:13.163Z,49.40
2023-06-19T13:28:15.217Z,49.15
2023-06-19T13:29:17.985Z,49.97
2023-06-19T13:30:19.832Z,50.24
2023-06-19T13:31:22.554Z,49.57
2023-06-19T13:32:24.336Z,48.83
2023-06-19T13:33:27.565Z,50.02
2023-06-19T13:34:29.395Z,48.76
2023-06-19T13:35:32.429Z,48.79
2023-06-19T13:36:34.230Z,49.40
2023-06-19T13:37:39.878Z,48.83
2023-06-19T13:38:44.929Z,49.43
2023-06-19T13:39:49.939Z,49.22
2023-06-19T13:40:51.741Z,48.88
2023-06-19T13:41:54.740Z,47.96
2023-06-19T13:42:58.255Z,47.56
2023-06-19T13:44:01.055Z,48.34
2023-06-19T13:45:03.406Z,48.46
2023-06-19T13:46:06.952Z,48.76
2023-06-19T13:47:09.061Z,48.66
2023-06-19T13:48:11.827Z,48.61
2023-06-19T13:49:15.340Z,48.43
2023-06-19T13:50:19.301Z,48.79
2023-06-19T13:51:23.445Z,48.52
2023-06-19T13:52:26.332Z,48.73
2023-06-19T13:53:30.848Z,48.08
2023-06-19T13:54:32.701Z,48.39
2023-06-19T13:55:36.689Z,48.64
2023-06-19T13:56:39.275Z,48.93
2023-06-19T13:57:42.400Z,48.96
2023-06-19T13:58:44.327Z,48.70
2023-06-19T13:59:48.312Z,49.84
2023-06-19T14:00:50.207Z,49.81
2023-06-19T14:01:52.961Z,48.77
2023-06-19T14:02:55.475Z,49.13
2023-06-19T14:03:58.913Z,48.53
2023-06-19T14:05:01.133Z,47.95
2023-06-19T14:06:03.800Z,49.02
2023-06-19T14:07:06.794Z,49.00
2023-06-19T14:08:10.186Z,48.46
2023-06-19T14:09:13.326Z,47.94
2023-06-19T14:10:15.068Z,47.94
2023-06-19T14:11:19.972Z,48.40
2023-06-19T14:12:22.709Z,48.55
2023-06-19T14:13:27.315Z,47.75
2023-06-19T14:14:29.084Z,48.88
2023-06-19T14:15:31.822Z,48.89
2023-06-19T14:16:33.559Z,48.82
2023-06-19T14:17:36.519Z,49.14
2023-06-19T14:18:38.863Z,48.34
2023-06-19T14:19:41.563Z,47.70
2023-06-19T14:20:43.359Z,49.39
2023-06-19T14:21:46.005Z,49.23
2023-06-19T14:22:47.711Z,48.74
2023-06-19T14:23:50.399Z,48.64
2023-06-19T14:24:54.295Z,49.13
2023-06-19T14:25:57.077Z,47.87
2023-06-19T14:27:01.122Z,48.55
2023-06-19T14:28:03.390Z,48.84
2023-06-19T14:29:06.119Z,48.77
2023-06-19T14:30:09.198Z,49.09
2023-06-19T14:31:12.244Z,50.07
2023-06-19T14:32:14.441Z,50.55
2023-06-19T14:33:17.135Z,49.97
2023-06-19T14:34:19.962Z,50.21
2023-06-19T14:35:22.701Z,50.16
2023-06-19T14:36:25.466Z,49.42
2023-06-19T14:37:27.584Z,50.09
2023-06-19T14:38:34.318Z,49.44
2023-06-19T14:39:36.143Z,49.74
2023-06-19T14:40:38.797Z,50.27
2023-06-19T14:41:40.832Z,50.99
2023-06-19T14:42:44.734Z,51.01
2023-06-19T14:43:46.532Z,50.81
2023-06-19T14:44:49.249Z,51.30
2023-06-19T14:45:51.323Z,50.50
2023-06-19T14:46:54.110Z,50.58
2023-06-19T14:47:55.907Z,50.04
2023-06-19T14:48:59.809Z,50.37
2023-06-19T14:50:02.646Z,51.32
2023-06-19T14:51:05.613Z,51.19
2023-06-19T14:52:08.901Z,50.88
2023-06-19T14:53:10.708Z,52.08
2023-06-19T14:54:14.413Z,51.05
2023-06-19T14:55:16.279Z,51.08
2023-06-19T14:56:18.973Z,52.04
2023-06-19T14:57:20.783Z,52.56
2023-06-19T14:58:28.077Z,51.53
2023-06-19T14:59:31.285Z,52.74
2023-06-19T15:00:34.003Z,52.65
2023-06-19T15:01:36.847Z,52.77
2023-06-19T15:02:41.074Z,52.24
2023-06-19T15:03:44.335Z,52.91
2023-06-19T15:05:01.045Z,53.27
2023-06-19T15:06:08.196Z,53.09
2023-06-19T15:07:10.204Z,52.46
2023-06-19T15:08:12.912Z,52.58
2023-06-19T15:09:14.962Z,53.50
2023-06-19T15:10:17.689Z,53.81
2023-06-19T15:11:19.554Z,54.13
2023-06-19T15:12:22.230Z,53.50
2023-06-19T15:13:26.195Z,54.10
2023-06-19T15:14:28.103Z,54.11
2023-06-19T15:15:30.814Z,53.70
2023-06-19T15:16:34.716Z,54.47
2023-06-19T15:17:38.914Z,54.17
2023-06-19T15:18:41.382Z,54.19
2023-06-19T15:19:51.279Z,54.19
2023-06-19T15:20:56.861Z,53.82
2023-06-19T15:21:59.587Z,54.10
2023-06-19T15:23:01.356Z,53.95
2023-06-19T15:24:04.473Z,54.84
2023-06-19T15:25:07.213Z,54.69
2023-06-19T15:26:09.843Z,53.69
2023-06-19T15:27:12.639Z,54.49
2023-06-19T15:28:16.331Z,53.85
2023-06-19T15:29:20.327Z,53.60
2023-06-19T15:30:22.512Z,54.16
2023-06-19T15:31:25.668Z,53.46
2023-06-19T15:32:27.598Z,54.15
2023-06-19T15:33:30.301Z,54.52
2023-06-19T15:34:33.163Z,54.56
2023-06-19T15:35:34.952Z,53.48
2023-06-19T15:36:37.706Z,53.44
2023-06-19T15:37:39.709Z,53.14
2023-06-19T15:38:42.419Z,53.96
2023-06-19T15:39:44.328Z,53.86
2023-06-19T15:40:47.537Z,53.04
2023-06-19T15:41:49.312Z,53.78
2023-06-19T15:42:52.435Z,53.13
2023-06-19T15:43:54.257Z,52.54
2023-06-19T15:44:58.226Z,52.07
2023-06-19T15:46:00.170Z,52.80
2023-06-19T15:47:03.021Z,51.89
2023-06-19T15:48:05.267Z,52.56
2023-06-19T15:49:09.170Z,51.51
2023-06-19T15:50:13.343Z,51.54
2023-06-19T15:51:16.348Z,51.86
2023-06-19T15:52:18.306Z,52.10
2023-06-19T15:53:21.982Z,51.35
2023-06-19T15:54:24.326Z,51.97
2023-06-19T15:55:28.600Z,51.27
2023-06-19T15:56:30.455Z,51.96
2023-06-19T15:57:33.515Z,51.31
2023-06-19T15:58:35.234Z,50.83
2023-06-19T15:59:38.017Z,51.05
2023-06-19T16:00:41.312Z,50.55
2023-06-19T16:01:44.386Z,50.57
2023-06-19T16:02:48.601Z,51.44
2023-06-19T16:03:51.988Z,52.08
2023-06-19T16:04:53.951Z,52.06
2023-06-19T16:07:02.064Z,52.59
2023-06-19T16:08:04.888Z,53.41
2023-06-19T16:09:06.717Z,52.78
2023-06-19T16:10:10.084Z,52.96
2023-06-19T16:11:12.466Z,53.66
2023-06-19T16:12:15.446Z,53.88
2023-06-19T16:13:17.446Z,53.75
2023-06-19T16:14:20.244Z,53.13
2023-06-19T16:15:28.852Z,53.08
2023-06-19T16:16:32.984Z,53.04
2023-06-19T16:17:34.837Z,52.37
2023-06-19T16:18:37.563Z,52.32
2023-06-19T16:19:40.006Z,52.82
2023-06-19T16:20:42.705Z,52.54
2023-06-19T16:21:44.579Z,53.29
2023-06-19T16:22:47.274Z,53.12
2023-06-19T16:23:49.070Z,52.89
2023-06-19T16:24:51.727Z,53.24
2023-06-19T16:25:53.495Z,53.60
2023-06-19T16:26:56.896Z,53.51
2023-06-19T16:28:01.188Z,52.93
2023-06-19T16:29:05.560Z,53.13
2023-06-19T16:30:08.288Z,53.56
2023-06-19T16:31:12.186Z,53.45
2023-06-19T16:32:15.357Z,52.98
2023-06-19T16:33:18.766Z,53.56
2023-06-19T16:34:20.693Z,53.25
2023-06-19T16:35:23.889Z,53.32
2023-06-19T16:36:25.896Z,53.26
2023-06-19T16:37:28.624Z,54.09
2023-06-19T16:38:30.418Z,53.89
2023-06-19T16:39:33.418Z,53.68
2023-06-19T16:40:35.179Z,53.59
2023-06-19T16:41:38.898Z,53.48
2023-06-19T16:42:40.646Z,53.28
2023-06-19T16:43:43.383Z,53.81
2023-06-19T16:44:45.180Z,53.61
2023-06-19T16:45:48.044Z,54.50
2023-06-19T16:46:50.198Z,54.51
2023-06-19T16:47:54.272Z,54.65
2023-06-19T16:48:56.054Z,54.16
2023-06-19T16:49:58.881Z,54.08
2023-06-19T16:51:00.716Z,54.00
2023-06-19T16:52:03.433Z,54.27
2023-06-19T16:53:07.124Z,54.37
2023-06-19T16:54:09.896Z,54.91
2023-06-19T16:55:11.746Z,55.43
2023-06-19T16:56:14.508Z,55.08
2023-06-19T16:57:16.298Z,55.88
2023-06-19T16:58:18.942Z,55.26
2023-06-19T16:59:20.766Z,55.13
2023-06-19T17:00:23.836Z,54.64
2023-06-19T17:01:25.864Z,55.14
2023-06-19T17:02:28.879Z,55.04
2023-06-19T17:03:32.103Z,54.18
2023-06-19T17:04:34.861Z,54.93
2023-06-19T17:05:36.793Z,54.76
2023-06-19T17:06:39.576Z,55.11
2023-06-19T17:07:41.324Z,53.93
2023-06-19T17:08:44.158Z,53.88
2023-06-19T17:09:47.267Z,54.58
2023-06-19T17:10:50.086Z,55.06
2023-06-19T17:11:52.920Z,54.77
2023-06-19T17:12:55.717Z,55.65
2023-06-19T17:13:57.544Z,55.99
2023-06-19T17:15:01.301Z,55.30
2023-06-19T17:16:03.127Z,55.84
2023-06-19T17:17:06.439Z,55.68
2023-06-19T17:18:11.301Z,56.15
2023-06-19T17:19:15.198Z,55.70
2023-06-19T17:20:16.995Z,56.09
2023-06-19T17:21:19.694Z,56.45
2023-06-19T17:22:21.485Z,56.09
2023-06-19T17:23:24.139Z,56.71
2023-06-19T17:24:26.015Z,57.20
2023-06-19T17:25:29.726Z,56.69
2023-06-19T17:26:31.536Z,56.59
2023-06-19T17:27:34.313Z,56.09
2023-06-19T17:28:37.074Z,57.12
2023-06-19T17:29:38.874Z,57.25
2023-06-19T17:30:41.873Z,56.58
2023-06-19T17:31:43.649Z,57.04
2023-06-19T17:32:47.618Z,57.00
2023-06-19T17:33:49.464Z,57.13
2023-06-19T17:34:53.565Z,56.90
2023-06-19T17:35:55.391Z,56.87
2023-06-19T17:36:58.035Z,57.09
2023-06-19T17:37:59.827Z,58.64
2023-06-19T17:39:02.710Z,58.91
2023-06-19T17:40:05.532Z,59.29
2023-06-19T17:41:09.287Z,59.33
2023-06-19T17:42:11.228Z,59.84
2023-06-19T17:43:13.904Z,59.60
2023-06-19T17:44:15.671Z,59.04
2023-06-19T17:45:18.513Z,60.03
2023-06-19T17:46:20.377Z,61.38
2023-06-19T17:47:23.059Z,62.88
2023-06-19T17:48:25.957Z,63.68
2023-06-19T17:49:28.693Z,63.77
2023-06-19T17:50:31.888Z,64.16
2023-06-19T17:51:35.232Z,63.71
2023-06-19T17:52:37.115Z,63.83
2023-06-19T17:53:40.938Z,63.37
2023-06-19T17:54:45.579Z,62.78
2023-06-19T17:55:48.398Z,63.39
2023-06-19T17:56:50.413Z,63.68
2023-06-19T17:57:53.109Z,64.75
2023-06-19T17:58:54.862Z,64.50
2023-06-19T17:59:57.677Z,63.62
2023-06-19T18:00:59.487Z,63.57
2023-06-19T18:02:02.419Z,63.93
2023-06-19T18:03:05.507Z,63.70
2023-06-19T18:04:08.389Z,64.33
2023-06-19T18:05:10.465Z,64.85
2023-06-19T18:06:14.694Z,64.60
2023-06-19T18:07:18.704Z,64.96
2023-06-19T18:08:21.642Z,65.18
2023-06-19T18:09:23.627Z,65.14
2023-06-19T18:10:26.713Z,64.72
2023-06-19T18:11:28.739Z,65.20
2023-06-19T18:12:31.710Z,64.56
2023-06-19T18:13:33.582Z,65.24
2023-06-19T18:14:36.416Z,65.21
2023-06-19T18:15:38.730Z,65.40
2023-06-19T18:16:41.673Z,65.49
2023-06-19T18:17:43.512Z,64.96
2023-06-19T18:18:46.319Z,66.02
2023-06-19T18:19:48.140Z,65.93
2023-06-19T18:20:51.042Z,66.09
2023-06-19T18:21:54.175Z,66.28
2023-06-19T18:22:56.901Z,66.37
2023-06-19T18:23:58.660Z,66.12
2023-06-19T18:25:01.585Z,66.45
2023-06-19T18:26:03.437Z,67.65
2023-06-19T18:27:07.538Z,68.20
2023-06-19T18:28:10.866Z,69.44
2023-06-19T18:29:12.868Z,69.97
2023-06-19T18:30:16.216Z,70.33
2023-06-19T18:31:19.189Z,70.76
2023-06-19T18:32:22.515Z,71.12
2023-06-19T18:33:24.854Z,71.56
2023-06-19T18:34:28.425Z,71.40
2023-06-19T18:35:32.367Z,72.52
2023-06-19T18:36:35.631Z,72.90
2023-06-19T18:37:40.193Z,72.22
2023-06-19T18:38:42.676Z,72.61
2023-06-19T18:39:45.799Z,72.17
2023-06-19T18:40:50.468Z,72.20
2023-06-19T18:41:54.529Z,72.91
2023-06-19T18:42:59.113Z,72.85
2023-06-19T18:44:02.507Z,72.28
2023-06-19T18:45:07.576Z,72.28
2023-06-19T18:46:11.071Z,72.89
2023-06-19T18:47:15.487Z,72.27
2023-06-19T18:48:20.960Z,72.66